sensor_id;sensor_type;location;lat;lon;timestamp;pressure;altitude;pressure_sealevel;temperature;humidity
29197;BME280;62796;42.654;23.316;2023-02-19T00:01:06;94835.78;;;10.78;38.25
29197;BME280;62796;42.654;23.316;2023-02-19T00:03:32;94823.25;;;10.68;38.91
29197;BME280;62796;42.654;23.316;2023-02-19T00:06:00;94837.69;;;10.72;38.80
29197;BME280;62796;42.654;23.316;2023-02-19T00:08:29;94822.69;;;10.64;38.97
29197;BME280;62796;42.654;23.316;2023-02-19T00:10:59;94832.06;;;10.66;39.02
29197;BME280;62796;42.654;23.316;2023-02-19T00:13:25;94839.69;;;10.57;38.73
29197;BME280;62796;42.654;23.316;2023-02-19T00:15:50;94823.09;;;10.42;39.38
29197;BME280;62796;42.654;23.316;2023-02-19T00:18:15;94831.94;;;10.31;39.51
29197;BME280;62796;42.654;23.316;2023-02-19T00:20:41;94827.00;;;10.21;40.08
29197;BME280;62796;42.654;23.316;2023-02-19T00:23:06;94836.69;;;10.16;39.93
29197;BME280;62796;42.654;23.316;2023-02-19T00:25:35;94822.28;;;10.12;40.37
29197;BME280;62796;42.654;23.316;2023-02-19T00:28:01;94820.09;;;10.16;39.93
29197;BME280;62796;42.654;23.316;2023-02-19T00:30:26;94818.09;;;10.17;40.25
29197;BME280;62796;42.654;23.316;2023-02-19T00:32:51;94821.63;;;10.17;40.38
29197;BME280;62796;42.654;23.316;2023-02-19T00:35:17;94807.22;;;10.13;40.40
29197;BME280;62796;42.654;23.316;2023-02-19T00:37:42;94801.44;;;10.02;40.78
29197;BME280;62796;42.654;23.316;2023-02-19T00:40:08;94807.56;;;10.06;40.26
29197;BME280;62796;42.654;23.316;2023-02-19T00:42:33;94808.53;;;10.03;40.56
29197;BME280;62796;42.654;23.316;2023-02-19T00:44:59;94809.47;;;10.00;40.75
29197;BME280;62796;42.654;23.316;2023-02-19T00:47:24;94812.59;;;9.55;41.75
29197;BME280;62796;42.654;23.316;2023-02-19T00:49:49;94808.50;;;9.65;41.48
29197;BME280;62796;42.654;23.316;2023-02-19T00:52:15;94806.34;;;9.69;41.29
29197;BME280;62796;42.654;23.316;2023-02-19T00:54:40;94801.41;;;9.73;41.31
29197;BME280;62796;42.654;23.316;2023-02-19T00:57:05;94784.03;;;9.72;41.28
29197;BME280;62796;42.654;23.316;2023-02-19T00:59:31;94782.31;;;9.75;41.06
29197;BME280;62796;42.654;23.316;2023-02-19T01:01:56;94791.84;;;9.74;41.20
29197;BME280;62796;42.654;23.316;2023-02-19T01:04:21;94776.78;;;9.75;41.06
29197;BME280;62796;42.654;23.316;2023-02-19T01:06:47;94757.16;;;9.73;40.96
29197;BME280;62796;42.654;23.316;2023-02-19T01:09:13;94788.06;;;9.86;40.85
29197;BME280;62796;42.654;23.316;2023-02-19T01:11:38;94783.69;;;9.79;41.29
29197;BME280;62796;42.654;23.316;2023-02-19T01:14:04;94765.53;;;9.64;41.36
29197;BME280;62796;42.654;23.316;2023-02-19T01:16:29;94779.81;;;9.62;41.61
29197;BME280;62796;42.654;23.316;2023-02-19T01:18:56;94774.44;;;9.20;42.25
29197;BME280;62796;42.654;23.316;2023-02-19T01:21:23;94786.72;;;9.43;42.00
29197;BME280;62796;42.654;23.316;2023-02-19T01:23:50;94774.06;;;9.51;41.47
29197;BME280;62796;42.654;23.316;2023-02-19T01:26:18;94788.00;;;9.57;41.46
29197;BME280;62796;42.654;23.316;2023-02-19T01:28:45;94800.25;;;9.17;42.77
29197;BME280;62796;42.654;23.316;2023-02-19T01:31:19;94790.13;;;9.38;42.08
29197;BME280;62796;42.654;23.316;2023-02-19T01:33:46;94812.94;;;9.48;42.02
29197;BME280;62796;42.654;23.316;2023-02-19T01:36:12;94805.97;;;9.61;41.82
29197;BME280;62796;42.654;23.316;2023-02-19T01:38:38;94826.94;;;9.68;41.84
29197;BME280;62796;42.654;23.316;2023-02-19T01:41:06;94825.09;;;9.65;41.40
29197;BME280;62796;42.654;23.316;2023-02-19T01:43:33;94823.88;;;9.66;41.65
29197;BME280;62796;42.654;23.316;2023-02-19T01:45:59;94830.78;;;9.70;41.31
29197;BME280;62796;42.654;23.316;2023-02-19T01:48:37;94838.59;;;9.72;41.44
29197;BME280;62796;42.654;23.316;2023-02-19T01:51:10;94847.75;;;9.78;41.11
29197;BME280;62796;42.654;23.316;2023-02-19T01:53:40;94843.19;;;9.75;41.19
29197;BME280;62796;42.654;23.316;2023-02-19T01:56:07;94862.38;;;9.78;41.22
29197;BME280;62796;42.654;23.316;2023-02-19T01:58:35;94832.97;;;9.81;41.44
29197;BME280;62796;42.654;23.316;2023-02-19T02:01:04;94838.69;;;9.77;41.36
29197;BME280;62796;42.654;23.316;2023-02-19T02:03:30;94834.41;;;9.76;40.84
29197;BME280;62796;42.654;23.316;2023-02-19T02:06:01;94832.47;;;9.68;41.09
29197;BME280;62796;42.654;23.316;2023-02-19T02:08:27;94822.94;;;9.69;41.08
29197;BME280;62796;42.654;23.316;2023-02-19T02:11:12;94822.47;;;9.70;40.82
29197;BME280;62796;42.654;23.316;2023-02-19T02:13:38;94817.22;;;9.72;40.56
29197;BME280;62796;42.654;23.316;2023-02-19T02:19:05;94816.25;;;9.61;41.16
29197;BME280;62796;42.654;23.316;2023-02-19T02:29:48;94828.16;;;9.28;42.00
29197;BME280;62796;42.654;23.316;2023-02-19T02:32:20;94834.00;;;9.21;42.05
29197;BME280;62796;42.654;23.316;2023-02-19T02:34:53;94834.59;;;9.25;42.08
29197;BME280;62796;42.654;23.316;2023-02-19T02:37:22;94845.63;;;9.34;42.21
29197;BME280;62796;42.654;23.316;2023-02-19T02:39:49;94836.44;;;9.28;42.14
29197;BME280;62796;42.654;23.316;2023-02-19T02:42:16;94843.03;;;9.31;42.62
29197;BME280;62796;42.654;23.316;2023-02-19T02:44:55;94841.72;;;9.41;41.91
29197;BME280;62796;42.654;23.316;2023-02-19T02:47:52;94844.03;;;9.42;41.49
29197;BME280;62796;42.654;23.316;2023-02-19T02:50:25;94843.47;;;9.53;41.43
29197;BME280;62796;42.654;23.316;2023-02-19T02:52:59;94832.41;;;9.53;41.37
29197;BME280;62796;42.654;23.316;2023-02-19T02:55:46;94841.97;;;9.52;41.31
29197;BME280;62796;42.654;23.316;2023-02-19T02:58:14;94830.66;;;9.41;41.60
29197;BME280;62796;42.654;23.316;2023-02-19T03:00:42;94828.19;;;9.43;41.73
29197;BME280;62796;42.654;23.316;2023-02-19T03:03:28;94818.66;;;9.44;41.61
29197;BME280;62796;42.654;23.316;2023-02-19T03:05:58;94831.03;;;9.34;41.84
29197;BME280;62796;42.654;23.316;2023-02-19T03:08:35;94815.66;;;9.33;41.86
29197;BME280;62796;42.654;23.316;2023-02-19T03:11:06;94844.03;;;9.42;41.99
29197;BME280;62796;42.654;23.316;2023-02-19T03:13:58;94849.56;;;9.42;41.92
29197;BME280;62796;42.654;23.316;2023-02-19T03:16:45;94837.13;;;9.38;41.86
29197;BME280;62796;42.654;23.316;2023-02-19T03:19:34;94858.22;;;9.26;42.13
29197;BME280;62796;42.654;23.316;2023-02-19T03:22:13;94843.06;;;9.22;42.19
29197;BME280;62796;42.654;23.316;2023-02-19T03:24:47;94849.81;;;9.21;42.17
29197;BME280;62796;42.654;23.316;2023-02-19T03:27:33;94869.97;;;9.12;42.53
29197;BME280;62796;42.654;23.316;2023-02-19T03:30:03;94864.63;;;9.09;42.54
29197;BME280;62796;42.654;23.316;2023-02-19T03:33:03;94871.25;;;9.02;42.85
29197;BME280;62796;42.654;23.316;2023-02-19T03:35:35;94881.06;;;9.03;42.92
29197;BME280;62796;42.654;23.316;2023-02-19T03:43:52;94889.41;;;8.94;43.03
29197;BME280;62796;42.654;23.316;2023-02-19T03:46:35;94880.47;;;8.99;43.03
29197;BME280;62796;42.654;23.316;2023-02-19T03:49:14;94893.53;;;8.99;42.98
29197;BME280;62796;42.654;23.316;2023-02-19T03:51:47;94882.94;;;8.97;43.24
29197;BME280;62796;42.654;23.316;2023-02-19T04:02:10;94882.47;;;8.57;44.02
29197;BME280;62796;42.654;23.316;2023-02-19T04:04:42;94901.91;;;8.71;43.88
29197;BME280;62796;42.654;23.316;2023-02-19T04:07:09;94897.75;;;8.76;43.55
29197;BME280;62796;42.654;23.316;2023-02-19T04:09:36;94902.19;;;8.82;43.61
29197;BME280;62796;42.654;23.316;2023-02-19T04:12:04;94908.00;;;8.84;43.44
29197;BME280;62796;42.654;23.316;2023-02-19T04:14:44;94899.28;;;8.77;43.52
29197;BME280;62796;42.654;23.316;2023-02-19T04:17:38;94907.28;;;8.75;43.47
29197;BME280;62796;42.654;23.316;2023-02-19T04:20:06;94902.34;;;8.79;43.76
29197;BME280;62796;42.654;23.316;2023-02-19T04:22:35;94915.84;;;8.77;43.74
29197;BME280;62796;42.654;23.316;2023-02-19T04:25:01;94916.75;;;8.83;43.66
29197;BME280;62796;42.654;23.316;2023-02-19T04:27:27;94914.13;;;8.88;43.51
29197;BME280;62796;42.654;23.316;2023-02-19T04:29:52;94913.06;;;8.86;43.37
29197;BME280;62796;42.654;23.316;2023-02-19T04:32:18;94906.94;;;8.82;43.62
29197;BME280;62796;42.654;23.316;2023-02-19T04:34:43;94913.66;;;8.90;43.04
29197;BME280;62796;42.654;23.316;2023-02-19T04:37:09;94900.47;;;8.85;43.08
29197;BME280;62796;42.654;23.316;2023-02-19T04:39:34;94914.25;;;8.94;42.77
29197;BME280;62796;42.654;23.316;2023-02-19T04:42:00;94911.22;;;8.92;42.77
29197;BME280;62796;42.654;23.316;2023-02-19T04:44:25;94910.28;;;8.95;42.98
29197;BME280;62796;42.654;23.316;2023-02-19T04:46:50;94918.09;;;8.97;42.70
29197;BME280;62796;42.654;23.316;2023-02-19T04:49:16;94916.38;;;8.99;42.72
29197;BME280;62796;42.654;23.316;2023-02-19T04:51:41;94914.41;;;8.90;43.23
29197;BME280;62796;42.654;23.316;2023-02-19T04:54:07;94917.78;;;8.95;43.00
29197;BME280;62796;42.654;23.316;2023-02-19T04:56:32;94923.00;;;9.02;42.78
29197;BME280;62796;42.654;23.316;2023-02-19T04:58:58;94905.00;;;9.06;42.34
29197;BME280;62796;42.654;23.316;2023-02-19T05:01:24;94914.81;;;9.16;42.45
29197;BME280;62796;42.654;23.316;2023-02-19T05:03:50;94928.47;;;9.20;42.49
29197;BME280;62796;42.654;23.316;2023-02-19T05:06:15;94917.84;;;9.18;42.21
29197;BME280;62796;42.654;23.316;2023-02-19T05:08:41;94930.41;;;9.28;41.97
29197;BME280;62796;42.654;23.316;2023-02-19T05:11:08;94912.56;;;9.29;41.83
29197;BME280;62796;42.654;23.316;2023-02-19T05:13:35;94918.09;;;9.29;41.90
29197;BME280;62796;42.654;23.316;2023-02-19T05:16:09;94916.22;;;9.35;41.91
29197;BME280;62796;42.654;23.316;2023-02-19T05:18:38;94921.00;;;9.35;41.80
29197;BME280;62796;42.654;23.316;2023-02-19T05:21:04;94935.59;;;9.35;42.05
29197;BME280;62796;42.654;23.316;2023-02-19T05:23:29;94928.59;;;9.25;41.94
29197;BME280;62796;42.654;23.316;2023-02-19T05:25:55;94932.22;;;8.99;43.52
29197;BME280;62796;42.654;23.316;2023-02-19T05:28:21;94920.09;;;8.87;43.26
29197;BME280;62796;42.654;23.316;2023-02-19T05:30:53;94921.31;;;8.95;42.96
29197;BME280;62796;42.654;23.316;2023-02-19T05:33:20;94934.50;;;9.00;42.74
29197;BME280;62796;42.654;23.316;2023-02-19T05:35:47;94936.81;;;9.02;43.02
29197;BME280;62796;42.654;23.316;2023-02-19T05:38:13;94936.47;;;9.09;42.64
29197;BME280;62796;42.654;23.316;2023-02-19T05:40:39;94939.06;;;9.12;42.76
29197;BME280;62796;42.654;23.316;2023-02-19T05:43:05;94948.53;;;9.20;43.00
29197;BME280;62796;42.654;23.316;2023-02-19T05:45:32;94947.31;;;9.21;42.51
29197;BME280;62796;42.654;23.316;2023-02-19T05:47:57;94939.97;;;9.18;42.76
29197;BME280;62796;42.654;23.316;2023-02-19T05:50:23;94940.22;;;9.29;42.40
29197;BME280;62796;42.654;23.316;2023-02-19T05:52:49;94940.22;;;9.29;42.38
29197;BME280;62796;42.654;23.316;2023-02-19T05:55:15;94938.34;;;9.35;42.22
29197;BME280;62796;42.654;23.316;2023-02-19T05:57:45;94949.19;;;9.48;42.13
29197;BME280;62796;42.654;23.316;2023-02-19T06:00:12;94957.94;;;9.56;42.07
29197;BME280;62796;42.654;23.316;2023-02-19T06:02:38;94957.72;;;9.59;42.21
29197;BME280;62796;42.654;23.316;2023-02-19T06:05:03;94968.69;;;9.77;41.59
29197;BME280;62796;42.654;23.316;2023-02-19T06:07:30;94974.41;;;9.97;41.42
29197;BME280;62796;42.654;23.316;2023-02-19T06:09:55;94970.97;;;10.12;41.13
29197;BME280;62796;42.654;23.316;2023-02-19T06:12:21;94972.31;;;10.16;41.28
29197;BME280;62796;42.654;23.316;2023-02-19T06:14:46;94977.72;;;10.34;40.84
29197;BME280;62796;42.654;23.316;2023-02-19T06:17:12;94987.13;;;10.51;40.83
29197;BME280;62796;42.654;23.316;2023-02-19T06:19:37;94984.88;;;10.65;40.38
29197;BME280;62796;42.654;23.316;2023-02-19T06:22:03;94990.06;;;10.72;40.33
29197;BME280;62796;42.654;23.316;2023-02-19T06:24:28;94987.75;;;10.85;40.34
29197;BME280;62796;42.654;23.316;2023-02-19T06:26:54;94969.53;;;10.93;40.12
29197;BME280;62796;42.654;23.316;2023-02-19T06:29:20;94970.28;;;11.08;40.02
29197;BME280;62796;42.654;23.316;2023-02-19T06:31:45;94978.03;;;11.33;39.91
29197;BME280;62796;42.654;23.316;2023-02-19T06:34:10;94975.22;;;11.48;39.46
29197;BME280;62796;42.654;23.316;2023-02-19T06:36:36;94976.38;;;11.71;39.55
29197;BME280;62796;42.654;23.316;2023-02-19T06:39:03;94981.38;;;11.87;38.95
29197;BME280;62796;42.654;23.316;2023-02-19T06:41:29;94978.84;;;12.03;38.62
29197;BME280;62796;42.654;23.316;2023-02-19T06:43:57;94976.28;;;12.20;38.28
29197;BME280;62796;42.654;23.316;2023-02-19T06:46:22;94981.50;;;12.53;37.67
29197;BME280;62796;42.654;23.316;2023-02-19T06:48:48;94976.53;;;12.83;36.84
29197;BME280;62796;42.654;23.316;2023-02-19T06:51:15;94981.63;;;13.10;35.99
29197;BME280;62796;42.654;23.316;2023-02-19T06:53:44;94979.03;;;13.32;35.25
29197;BME280;62796;42.654;23.316;2023-02-19T06:56:25;94980.03;;;13.60;34.93
29197;BME280;62796;42.654;23.316;2023-02-19T06:58:52;94977.69;;;13.84;34.36
29197;BME280;62796;42.654;23.316;2023-02-19T07:01:18;94984.88;;;14.02;34.02
29197;BME280;62796;42.654;23.316;2023-02-19T07:03:43;94990.34;;;14.28;33.75
29197;BME280;62796;42.654;23.316;2023-02-19T07:06:09;94994.53;;;14.49;33.40
29197;BME280;62796;42.654;23.316;2023-02-19T07:08:34;94991.84;;;14.71;32.95
29197;BME280;62796;42.654;23.316;2023-02-19T07:11:00;94996.00;;;15.04;32.04
29197;BME280;62796;42.654;23.316;2023-02-19T07:13:26;94984.56;;;15.02;32.21
29197;BME280;62796;42.654;23.316;2023-02-19T07:15:57;94986.59;;;15.07;31.95
29197;BME280;62796;42.654;23.316;2023-02-19T07:18:23;94998.56;;;15.29;31.51
29197;BME280;62796;42.654;23.316;2023-02-19T07:20:48;94982.34;;;15.44;31.04
29197;BME280;62796;42.654;23.316;2023-02-19T07:23:14;94971.22;;;15.72;30.39
29197;BME280;62796;42.654;23.316;2023-02-19T07:25:40;94966.34;;;16.12;29.73
29197;BME280;62796;42.654;23.316;2023-02-19T07:28:06;94975.88;;;16.55;28.89
29197;BME280;62796;42.654;23.316;2023-02-19T07:30:31;94968.63;;;16.87;28.26
29197;BME280;62796;42.654;23.316;2023-02-19T07:32:57;94970.84;;;17.00;27.82
29197;BME280;62796;42.654;23.316;2023-02-19T07:35:22;94970.25;;;17.12;27.88
29197;BME280;62796;42.654;23.316;2023-02-19T07:37:47;94963.91;;;17.53;26.97
29197;BME280;62796;42.654;23.316;2023-02-19T07:40:13;94963.88;;;17.88;26.65
29197;BME280;62796;42.654;23.316;2023-02-19T07:42:38;94956.91;;;18.24;25.84
29197;BME280;62796;42.654;23.316;2023-02-19T07:45:04;94959.34;;;18.34;26.03
29197;BME280;62796;42.654;23.316;2023-02-19T07:47:29;94966.72;;;18.79;25.32
29197;BME280;62796;42.654;23.316;2023-02-19T07:49:55;94954.44;;;18.15;26.14
29197;BME280;62796;42.654;23.316;2023-02-19T07:52:20;94951.50;;;18.02;26.09
29197;BME280;62796;42.654;23.316;2023-02-19T07:54:46;94951.25;;;17.76;26.64
29197;BME280;62796;42.654;23.316;2023-02-19T07:57:11;94950.38;;;17.57;27.41
29197;BME280;62796;42.654;23.316;2023-02-19T07:59:36;94949.06;;;18.42;25.84
29197;BME280;62796;42.654;23.316;2023-02-19T08:02:02;94964.47;;;19.15;24.98
29197;BME280;62796;42.654;23.316;2023-02-19T08:04:46;94956.53;;;19.70;23.99
29197;BME280;62796;42.654;23.316;2023-02-19T08:07:11;94948.72;;;19.95;23.71
29197;BME280;62796;42.654;23.316;2023-02-19T08:09:37;94952.81;;;20.38;23.25
29197;BME280;62796;42.654;23.316;2023-02-19T08:12:02;94955.84;;;20.67;22.54
29197;BME280;62796;42.654;23.316;2023-02-19T08:14:46;94945.75;;;19.74;23.62
29197;BME280;62796;42.654;23.316;2023-02-19T08:17:11;94942.25;;;19.17;24.56
29197;BME280;62796;42.654;23.316;2023-02-19T08:19:37;94956.22;;;19.04;25.43
29197;BME280;62796;42.654;23.316;2023-02-19T08:22:02;94946.69;;;19.45;24.27
29197;BME280;62796;42.654;23.316;2023-02-19T08:24:28;94954.25;;;20.00;23.88
29197;BME280;62796;42.654;23.316;2023-02-19T08:26:55;94945.22;;;20.60;23.51
29197;BME280;62796;42.654;23.316;2023-02-19T08:29:20;94951.81;;;20.62;23.17
29197;BME280;62796;42.654;23.316;2023-02-19T08:31:46;94949.78;;;20.63;23.14
29197;BME280;62796;42.654;23.316;2023-02-19T08:34:11;94950.59;;;21.10;22.42
29197;BME280;62796;42.654;23.316;2023-02-19T08:36:37;94954.00;;;19.85;24.16
29197;BME280;62796;42.654;23.316;2023-02-19T08:39:02;94944.03;;;20.42;23.86
29197;BME280;62796;42.654;23.316;2023-02-19T08:41:27;94932.84;;;20.76;23.28
29197;BME280;62796;42.654;23.316;2023-02-19T08:43:53;94939.53;;;21.12;22.90
29197;BME280;62796;42.654;23.316;2023-02-19T08:46:18;94933.59;;;21.49;22.24
29197;BME280;62796;42.654;23.316;2023-02-19T08:48:44;94930.16;;;21.85;21.77
29197;BME280;62796;42.654;23.316;2023-02-19T08:51:10;94940.00;;;21.71;21.61
29197;BME280;62796;42.654;23.316;2023-02-19T08:53:38;94933.88;;;21.80;21.11
29197;BME280;62796;42.654;23.316;2023-02-19T08:56:09;94916.13;;;21.72;21.48
29197;BME280;62796;42.654;23.316;2023-02-19T08:58:35;94926.16;;;21.80;21.46
29197;BME280;62796;42.654;23.316;2023-02-19T09:01:02;94913.84;;;21.70;21.46
29197;BME280;62796;42.654;23.316;2023-02-19T09:03:27;94914.88;;;20.92;23.17
29197;BME280;62796;42.654;23.316;2023-02-19T09:05:53;94916.66;;;20.56;23.68
29197;BME280;62796;42.654;23.316;2023-02-19T09:08:18;94908.44;;;20.58;23.82
29197;BME280;62796;42.654;23.316;2023-02-19T09:10:44;94893.88;;;20.80;23.20
29197;BME280;62796;42.654;23.316;2023-02-19T09:13:09;94910.06;;;21.00;23.12
29197;BME280;62796;42.654;23.316;2023-02-19T09:15:37;94910.28;;;21.15;23.06
29197;BME280;62796;42.654;23.316;2023-02-19T09:18:02;94891.25;;;21.08;23.19
29197;BME280;62796;42.654;23.316;2023-02-19T09:20:27;94884.31;;;21.09;23.02
29197;BME280;62796;42.654;23.316;2023-02-19T09:22:57;94874.72;;;21.25;22.75
29197;BME280;62796;42.654;23.316;2023-02-19T09:25:23;94879.69;;;21.32;22.54
29197;BME280;62796;42.654;23.316;2023-02-19T09:27:53;94892.13;;;21.58;22.29
29197;BME280;62796;42.654;23.316;2023-02-19T09:30:19;94894.53;;;21.53;22.19
29197;BME280;62796;42.654;23.316;2023-02-19T09:32:44;94887.03;;;21.35;22.54
29197;BME280;62796;42.654;23.316;2023-02-19T09:35:10;94883.63;;;21.71;22.23
29197;BME280;62796;42.654;23.316;2023-02-19T09:37:35;94885.94;;;21.80;21.73
29197;BME280;62796;42.654;23.316;2023-02-19T09:40:00;94880.03;;;21.91;21.52
29197;BME280;62796;42.654;23.316;2023-02-19T09:42:27;94883.97;;;21.88;21.35
29197;BME280;62796;42.654;23.316;2023-02-19T09:44:58;94887.38;;;21.52;21.79
29197;BME280;62796;42.654;23.316;2023-02-19T09:47:27;94879.59;;;21.87;21.62
29197;BME280;62796;42.654;23.316;2023-02-19T09:49:58;94884.50;;;22.07;21.26
29197;BME280;62796;42.654;23.316;2023-02-19T09:52:40;94872.56;;;22.22;21.00
29197;BME280;62796;42.654;23.316;2023-02-19T09:55:13;94870.44;;;22.43;20.84
29197;BME280;62796;42.654;23.316;2023-02-19T09:57:39;94862.63;;;22.64;20.54
29197;BME280;62796;42.654;23.316;2023-02-19T10:00:18;94853.75;;;22.96;20.01
29197;BME280;62796;42.654;23.316;2023-02-19T10:02:44;94848.34;;;23.13;19.83
29197;BME280;62796;42.654;23.316;2023-02-19T10:05:14;94837.69;;;23.49;19.42
29197;BME280;62796;42.654;23.316;2023-02-19T10:07:45;94832.63;;;23.71;19.13
29197;BME280;62796;42.654;23.316;2023-02-19T10:12:39;94826.75;;;24.06;18.24
29197;BME280;62796;42.654;23.316;2023-02-19T10:15:13;94815.81;;;24.10;18.71
29197;BME280;62796;42.654;23.316;2023-02-19T10:17:41;94807.63;;;24.37;18.56
29197;BME280;62796;42.654;23.316;2023-02-19T10:20:13;94805.84;;;24.64;18.22
29197;BME280;62796;42.654;23.316;2023-02-19T10:22:39;94807.97;;;25.04;17.72
29197;BME280;62796;42.654;23.316;2023-02-19T10:25:04;94805.03;;;24.87;17.61
29197;BME280;62796;42.654;23.316;2023-02-19T10:27:30;94805.28;;;23.43;19.24
29197;BME280;62796;42.654;23.316;2023-02-19T10:29:56;94803.19;;;23.89;18.84
29197;BME280;62796;42.654;23.316;2023-02-19T10:32:24;94796.19;;;24.20;18.52
29197;BME280;62796;42.654;23.316;2023-02-19T10:35:13;94796.75;;;23.96;18.54
29197;BME280;62796;42.654;23.316;2023-02-19T10:37:46;94776.31;;;24.35;18.49
29197;BME280;62796;42.654;23.316;2023-02-19T10:40:18;94782.25;;;24.62;18.08
29197;BME280;62796;42.654;23.316;2023-02-19T10:42:49;94772.28;;;24.61;17.86
29197;BME280;62796;42.654;23.316;2023-02-19T10:45:21;94761.69;;;24.61;17.95
29197;BME280;62796;42.654;23.316;2023-02-19T10:47:48;94749.22;;;24.64;17.87
29197;BME280;62796;42.654;23.316;2023-02-19T10:50:24;94743.81;;;24.51;18.15
29197;BME280;62796;42.654;23.316;2023-02-19T10:52:52;94738.63;;;24.65;17.78
29197;BME280;62796;42.654;23.316;2023-02-19T10:57:45;94739.88;;;24.87;17.61
29197;BME280;62796;42.654;23.316;2023-02-19T11:02:40;94721.47;;;25.03;17.44
29197;BME280;62796;42.654;23.316;2023-02-19T11:07:46;94712.56;;;24.27;18.16
29197;BME280;62796;42.654;23.316;2023-02-19T11:12:53;94705.00;;;24.69;17.76
29197;BME280;62796;42.654;23.316;2023-02-19T11:15:22;94693.78;;;24.86;17.50
29197;BME280;62796;42.654;23.316;2023-02-19T11:18:07;94696.06;;;24.88;17.34
29197;BME280;62796;42.654;23.316;2023-02-19T11:20:52;94683.75;;;24.93;17.44
29197;BME280;62796;42.654;23.316;2023-02-19T11:23:34;94685.06;;;24.59;17.82
29197;BME280;62796;42.654;23.316;2023-02-19T11:26:03;94664.34;;;24.49;17.88
29197;BME280;62796;42.654;23.316;2023-02-19T11:28:35;94678.94;;;24.70;17.59
29197;BME280;62796;42.654;23.316;2023-02-19T11:31:25;94673.81;;;25.09;17.27
29197;BME280;62796;42.654;23.316;2023-02-19T11:34:02;94663.09;;;25.24;17.10
29197;BME280;62796;42.654;23.316;2023-02-19T11:36:45;94654.94;;;25.53;16.62
29197;BME280;62796;42.654;23.316;2023-02-19T11:44:58;94651.88;;;26.54;15.77
29197;BME280;62796;42.654;23.316;2023-02-19T11:50:51;94641.44;;;26.83;14.99
29197;BME280;62796;42.654;23.316;2023-02-19T11:53:32;94631.09;;;27.24;14.54
29197;BME280;62796;42.654;23.316;2023-02-19T11:59:02;94634.06;;;27.53;14.08
29197;BME280;62796;42.654;23.316;2023-02-19T12:09:42;94617.41;;;25.62;16.73
29197;BME280;62796;42.654;23.316;2023-02-19T12:12:29;94624.19;;;26.28;15.99
29197;BME280;62796;42.654;23.316;2023-02-19T12:20:21;94603.66;;;27.84;14.68
29197;BME280;62796;42.654;23.316;2023-02-19T12:22:56;94592.72;;;28.29;14.30
29197;BME280;62796;42.654;23.316;2023-02-19T12:31:03;94582.28;;;29.64;12.78
29197;BME280;62796;42.654;23.316;2023-02-19T12:33:57;94568.81;;;29.97;12.58
29197;BME280;62796;42.654;23.316;2023-02-19T12:42:39;94556.16;;;31.12;11.38
29197;BME280;62796;42.654;23.316;2023-02-19T12:45:18;94561.38;;;31.27;11.61
29197;BME280;62796;42.654;23.316;2023-02-19T12:47:56;94548.94;;;31.23;11.43
29197;BME280;62796;42.654;23.316;2023-02-19T12:50:25;94544.94;;;31.40;11.18
29197;BME280;62796;42.654;23.316;2023-02-19T12:52:58;94535.94;;;31.45;11.46
29197;BME280;62796;42.654;23.316;2023-02-19T12:55:29;94532.19;;;31.77;11.27
29197;BME280;62796;42.654;23.316;2023-02-19T12:58:00;94537.72;;;31.87;10.93
29197;BME280;62796;42.654;23.316;2023-02-19T13:03:15;94510.06;;;32.28;10.74
29197;BME280;62796;42.654;23.316;2023-02-19T13:13:38;94501.09;;;33.00;9.94
29197;BME280;62796;42.654;23.316;2023-02-19T13:16:09;94498.47;;;33.18;9.71
29197;BME280;62796;42.654;23.316;2023-02-19T13:18:58;94485.78;;;33.36;9.69
29197;BME280;62796;42.654;23.316;2023-02-19T13:21:29;94485.31;;;33.56;9.42
29197;BME280;62796;42.654;23.316;2023-02-19T13:24:22;94481.28;;;33.61;9.53
29197;BME280;62796;42.654;23.316;2023-02-19T13:32:29;94467.25;;;33.96;9.14
29197;BME280;62796;42.654;23.316;2023-02-19T13:37:49;94461.81;;;34.31;9.08
29197;BME280;62796;42.654;23.316;2023-02-19T13:40:25;94457.13;;;34.69;8.70
29197;BME280;62796;42.654;23.316;2023-02-19T13:42:54;94455.69;;;34.55;8.46
29197;BME280;62796;42.654;23.316;2023-02-19T13:45:23;94460.22;;;34.44;8.44
29197;BME280;62796;42.654;23.316;2023-02-19T13:50:29;94445.47;;;33.62;9.14
29197;BME280;62796;42.654;23.316;2023-02-19T13:53:01;94446.69;;;33.29;9.41
29197;BME280;62796;42.654;23.316;2023-02-19T13:55:44;94449.97;;;32.69;9.57
29197;BME280;62796;42.654;23.316;2023-02-19T14:01:05;94447.56;;;31.26;10.57
29197;BME280;62796;42.654;23.316;2023-02-19T14:03:45;94436.94;;;30.57;11.04
29197;BME280;62796;42.654;23.316;2023-02-19T14:06:11;94434.25;;;30.03;11.51
29197;BME280;62796;42.654;23.316;2023-02-19T14:08:55;94421.13;;;29.44;12.12
29197;BME280;62796;42.654;23.316;2023-02-19T14:25:35;94409.75;;;27.59;14.43
29197;BME280;62796;42.654;23.316;2023-02-19T14:30:45;94404.22;;;27.52;15.33
29197;BME280;62796;42.654;23.316;2023-02-19T14:33:14;94398.06;;;27.74;14.37
29197;BME280;62796;42.654;23.316;2023-02-19T14:35:43;94399.78;;;27.98;14.22
29197;BME280;62796;42.654;23.316;2023-02-19T14:38:23;94402.81;;;27.81;14.16
29197;BME280;62796;42.654;23.316;2023-02-19T14:40:51;94395.97;;;27.65;13.84
29197;BME280;62796;42.654;23.316;2023-02-19T14:43:20;94398.09;;;27.45;13.94
29197;BME280;62796;42.654;23.316;2023-02-19T14:45:48;94388.06;;;27.16;14.19
29197;BME280;62796;42.654;23.316;2023-02-19T14:48:30;94385.19;;;26.77;16.28
29197;BME280;62796;42.654;23.316;2023-02-19T14:51:15;94385.41;;;26.24;15.73
29197;BME280;62796;42.654;23.316;2023-02-19T14:53:44;94386.09;;;25.78;16.84
29197;BME280;62796;42.654;23.316;2023-02-19T14:56:25;94383.88;;;25.50;16.38
29197;BME280;62796;42.654;23.316;2023-02-19T15:01:36;94368.47;;;25.09;17.71
29197;BME280;62796;42.654;23.316;2023-02-19T15:04:02;94370.28;;;24.88;17.35
29197;BME280;62796;42.654;23.316;2023-02-19T15:06:29;94371.25;;;24.65;22.06